Impacts METAR Board
IDs:

KLAX - Los Angeles Intl, CA, US

Updated at: 0900 UTC 23 Jan 2019
Potential Impact None Slight Moderate High
Time 22/21Z 22/22Z 22/23Z 23/00Z 23/01Z 23/02Z 23/03Z 23/04Z 23/05Z 23/06Z 23/07Z 23/08Z 23/09Z
Temp64 63 63 63 61 58 61 59 59 56 58 53 52
Dewpt29 31 25 27 30 39 22 27 13 22 21 28 29
Altim30.25 30.24 30.23 30.25 30.26 30.27 30.27 30.29 30.30 30.32 30.32 30.33 30.34
VIS10 10 10 10 10 10 10 10 10 10 10 10 10
CIG250 250 250 -- -- -- -- -- -- -- -- -- --
CoverBKNBKNBKNSCTSCTFEWFEWFEWFEWFEWFEWCLRCLR
FltCatVFRVFRVFRVFRVFRVFRVFRVFRVFRVFRVFRVFRVFR
WX--------------------------
WDir21021018024024024000350140000
WSpd9 9 5 7 4 7 0 3 7 4 0 5 0
WGst-- -- -- -- -- -- -- -- -- -- -- -- --
Raw hourly METARs
KLAX 222053Z 21009KT 10SM FEW100 SCT140 SCT160 BKN250 18/M02 A3025 RMK AO2 SLP242 T01781017 56005
KLAX 222153Z 21009KT 10SM FEW100 SCT140 SCT180 BKN250 17/M01 A3024 RMK AO2 SLP241 T01721006
KLAX 222253Z 18005KT 10SM FEW200 BKN250 17/M04 A3023 RMK AO2 SLP238 T01721039
KLAX 222353Z 24007KT 10SM FEW200 SCT250 17/M03 A3025 RMK AO2 SLP242 T01721028 10183 20156 55001
KLAX 230053Z 24004KT 10SM FEW200 SCT250 16/M01 A3026 RMK AO2 SLP245 T01611011
KLAX 230153Z 24007KT 10SM FEW200 FEW250 14/04 A3027 RMK AO2 SLP249 T01440039
KLAX 230253Z 00000KT 10SM FEW250 16/M06 A3027 RMK AO2 SLP251 T01611056 51009
KLAX 230353Z VRB03KT 10SM FEW250 15/M03 A3029 RMK AO2 SLP256 T01501028
KLAX 230453Z 35007KT 10SM FEW250 15/M11 A3030 RMK AO2 SLP261 T01501106
KLAX 230553Z 14004KT 10SM FEW250 13/M06 A3032 RMK AO2 SLP266 T01331056 10178 20128 53015
KLAX 230653Z 00000KT 10SM FEW250 14/M06 A3032 RMK AO2 SLP267 T01441061
KLAX 230753Z VRB05KT 10SM CLR 12/M02 A3033 RMK AO2 SLP267 T01171022 401830111
KLAX 230853Z 00000KT 10SM CLR 11/M02 A3034 RMK AO2 SLP271 T01111017 53004



Page loaded:  09:22 UTC  |   01:22 AM Pacific  |   02:22 AM Mountain  |   03:22 AM Central  |   04:22 AM Eastern

 

ADVISORIES

FORECASTS

FORECASTS

OBSERVATIONS

USER TOOLS

ABOUT US